Portada
METAR-TAF:

METAR-TAF

Aeroports :

Barkley Regional Airport

Paducah, Kentucky, Estats Units d'Amèrica

latitud: 37-03-23N, longitud: 088-46-26W, altitud: 125 m

Observació

L'informe es va fer fa 1 hora i 10 minuts, a les 23:53 UTC
Vent 4 kt del Sud/Sud-Est
Temperatura 32°C
Humitat 49%
Pressió 1013 hPa
Visibilitat: 16.1 km
Cel clar

METAR: KPAH 242353Z 15004KT 10SM CLR 32/20 A2992 RMK AO2 SLP128 T03170200 10339 20311 56010

Hora: 20:03 (01:03 UTC)

Pronòstic

L'informe es va fer fa 1 hora i 43 minuts, a les 23:20 UTC
Pronòstic vàlid del 25 a les 00 UTC al 25 a les 24 UTC
Vent 2 kt amb direcció variable
Visibilitat: 10 km
Cel clar
A partir de les 25 a les 1400 UTC
Vent 7 kt del Sud/Sud-Oest
Visibilitat: 10 km
Escasses núvols a una alçada de 25000 ft

TAF: KPAH 242320Z 2500/2524 VRB02KT P6SM SKC FM251400 20007KT P6SM FEW250

Observacions i pronòstics meteorològics de més de 4000 aeroports (METAR i TAF).

Les estacions disponibles són els punts grocs i vermells al mapa.

Posi el ratolí al punt desitjat per veure el nom de l'estació.

Feu clic per veure les observacions i els pronòstics meteorològics.

Per canviar el mapa: feu clic els botons verds amb una creu de color negre per apropar; al botó verd amb un guió per allunyar la imatge; o en les fletxes verdes per a mapes adjacents.


METAR-TAF: